Current Conditions
Clear
Conditions



Pressure
1016.92 (hPa) - 30.03 (inHG)
Visibility

10.0 (km) - 6.2 (miles)
   Temperature
20  °C
68°F
14  °C
Dewpoint
69  %
 Humidity
   Wind Speed
3  km/h
2  kts
2  mph
0.9  m/s
   Wind Direction
Calm
Due North
   Airport Data
LEAS
Location Asturias 50 km (31.08 mi)
Metar :LEAS 190730Z VRB02KT CAVOK 20/14 Q1017 NOSIG
Fri 19th July 09:30 am
   Raw Metar Info
Raw METAR is the most common format in the world for the transmission of observational weather data. It is highly standardized through the International Civil Aviation Organization (ICAO), which allows it to be understood throughout most of the world.
   API Info
Data Provided by
https://www.checkwx.com/weather/LEAS
   © Info
CSS/SVG/PHP scripts were developed by weather34.com for use in the weather34 template © 2015-2019

Guide Info provided by Metar-Wikipedia